createdAt,value
2024-05-09T00:01:54.976Z,49.68
2024-05-09T00:06:58.075Z,50.23
2024-05-09T00:12:01.197Z,50.56
2024-05-09T00:17:04.328Z,50.57
2024-05-09T00:22:07.568Z,50.70
2024-05-09T00:27:12.670Z,50.41
2024-05-09T00:32:16.240Z,50.96
2024-05-09T00:37:19.419Z,50.76
2024-05-09T00:42:22.380Z,51.52
2024-05-09T00:47:25.631Z,52.21
2024-05-09T00:52:29.964Z,52.06
2024-05-09T00:57:33.083Z,53.22
2024-05-09T01:02:36.199Z,53.27
2024-05-09T01:07:42.562Z,53.22
2024-05-09T01:12:45.673Z,54.28
2024-05-09T01:17:48.986Z,54.24
2024-05-09T01:22:54.096Z,54.76
2024-05-09T01:27:57.109Z,55.34
2024-05-09T01:33:00.231Z,55.60
2024-05-09T01:38:03.657Z,56.01
2024-05-09T01:43:08.692Z,55.91
2024-05-09T01:48:12.865Z,56.62
2024-05-09T01:53:16.044Z,56.95
2024-05-09T01:58:19.285Z,57.49
2024-05-09T02:03:22.491Z,57.49
2024-05-09T02:08:25.700Z,58.48
2024-05-09T02:13:28.791Z,58.68
2024-05-09T02:18:31.849Z,59.30
2024-05-09T02:23:35.112Z,59.29
2024-05-09T02:28:38.051Z,59.15
2024-05-09T02:33:41.256Z,59.05
2024-05-09T02:38:44.497Z,59.11
2024-05-09T02:43:47.649Z,59.11
2024-05-09T02:48:50.908Z,59.75
2024-05-09T02:53:54.299Z,59.80
2024-05-09T02:58:57.266Z,60.29
2024-05-09T03:04:00.266Z,60.24
2024-05-09T03:09:04.841Z,60.26
2024-05-09T03:14:08.003Z,61.38
2024-05-09T03:19:11.126Z,61.53
2024-05-09T03:24:14.323Z,62.10
2024-05-09T03:29:17.519Z,62.37
2024-05-09T03:34:20.716Z,62.74
2024-05-09T03:39:24.818Z,62.71
2024-05-09T03:44:28.191Z,63.15
2024-05-09T03:49:31.394Z,63.08
2024-05-09T03:54:35.138Z,63.50
2024-05-09T03:59:38.205Z,64.01
2024-05-09T04:04:44.749Z,63.97
2024-05-09T04:09:47.931Z,63.73
2024-05-09T04:14:51.062Z,64.54
2024-05-09T04:19:54.271Z,63.87
2024-05-09T04:24:57.377Z,63.55
2024-05-09T04:30:00.525Z,62.67
2024-05-09T04:35:04.390Z,61.28
2024-05-09T04:40:14.162Z,60.66
2024-05-09T04:45:23.673Z,59.10
2024-05-09T04:50:35.437Z,58.63
2024-05-09T04:55:41.453Z,58.22
2024-05-09T05:00:44.574Z,58.11
2024-05-09T05:05:47.739Z,57.54
2024-05-09T05:10:53.865Z,56.99
2024-05-09T05:15:58.223Z,56.72
2024-05-09T05:21:02.016Z,56.29
2024-05-09T05:26:05.243Z,54.74
2024-05-09T05:31:08.643Z,53.92
2024-05-09T05:36:11.956Z,52.21
2024-05-09T05:41:15.034Z,51.13
2024-05-09T05:46:19.043Z,50.53
2024-05-09T05:51:22.103Z,50.47
2024-05-09T05:56:26.409Z,49.97
2024-05-09T06:01:30.914Z,49.50
2024-05-09T06:06:34.014Z,49.01
2024-05-09T06:11:40.162Z,48.30
2024-05-09T06:16:43.414Z,47.96
2024-05-09T06:21:46.375Z,47.26
2024-05-09T06:26:49.394Z,47.28
2024-05-09T06:31:52.501Z,47.05
2024-05-09T06:36:55.343Z,46.41
2024-05-09T06:41:58.419Z,46.57
2024-05-09T06:47:01.641Z,46.96
2024-05-09T06:52:05.022Z,46.73
2024-05-09T06:57:08.002Z,46.33
2024-05-09T07:02:10.967Z,46.66
2024-05-09T07:07:14.063Z,45.25
2024-05-09T07:12:18.517Z,45.00
2024-05-09T07:17:21.703Z,45.12
2024-05-09T07:22:25.495Z,43.91
2024-05-09T07:27:28.669Z,43.57
2024-05-09T07:32:32.088Z,42.51
2024-05-09T07:37:35.045Z,42.15
2024-05-09T07:42:38.215Z,42.23
2024-05-09T07:49:11.988Z,41.35
2024-05-09T07:53:36.215Z,41.36
2024-05-09T07:58:27.702Z,40.58
2024-05-09T08:03:31.511Z,40.62
2024-05-09T08:08:34.623Z,40.16
2024-05-09T08:13:37.654Z,40.36
2024-05-09T08:18:41.665Z,39.66
2024-05-09T08:23:44.706Z,39.39
2024-05-09T08:28:47.775Z,39.01
2024-05-09T08:33:55.231Z,38.66
2024-05-09T08:38:58.468Z,39.14
2024-05-09T08:44:02.049Z,38.48
2024-05-09T08:49:05.376Z,38.89
2024-05-09T08:54:08.742Z,38.50
2024-05-09T08:59:23.753Z,38.29
2024-05-09T09:04:28.298Z,38.19
2024-05-09T09:09:35.097Z,38.24
2024-05-09T09:14:38.172Z,38.18
2024-05-09T09:19:43.204Z,38.47
2024-05-09T09:24:46.153Z,37.87
2024-05-09T09:29:49.231Z,37.86
2024-05-09T09:34:52.306Z,38.31
2024-05-09T09:39:56.014Z,37.79
2024-05-09T09:45:04.707Z,38.12
2024-05-09T09:50:14.427Z,37.41
2024-05-09T09:55:22.472Z,37.68
2024-05-09T10:00:32.502Z,37.26
2024-05-09T10:05:37.415Z,36.87
2024-05-09T10:10:47.124Z,36.06
2024-05-09T10:15:54.385Z,36.03
2024-05-09T10:20:59.302Z,36.37
2024-05-09T10:26:05.219Z,36.97
2024-05-09T10:31:10.794Z,36.80
2024-05-09T10:36:18.423Z,36.47
2024-05-09T10:41:23.200Z,35.85
2024-05-09T10:46:26.572Z,36.39
2024-05-09T10:51:30.059Z,36.46
2024-05-09T10:56:33.183Z,36.15
2024-05-09T11:01:36.573Z,36.02
2024-05-09T11:06:40.213Z,35.81
2024-05-09T11:11:43.285Z,36.75
2024-05-09T11:16:46.404Z,36.38
2024-05-09T11:21:52.699Z,36.01
2024-05-09T11:26:58.037Z,36.24
2024-05-09T11:32:01.296Z,36.58
2024-05-09T11:37:04.765Z,36.76
2024-05-09T11:42:08.678Z,36.24
2024-05-09T11:47:11.713Z,36.02
2024-05-09T11:52:14.634Z,35.20
2024-05-09T11:57:17.716Z,35.41
2024-05-09T12:02:20.883Z,36.01
2024-05-09T12:07:24.277Z,36.18
2024-05-09T12:12:28.400Z,35.82
2024-05-09T12:17:31.595Z,34.92
2024-05-09T12:22:34.705Z,35.60
2024-05-09T12:27:38.899Z,35.44
2024-05-09T12:32:42.158Z,35.89
2024-05-09T12:37:45.297Z,34.88
2024-05-09T12:42:49.576Z,35.31
2024-05-09T12:47:52.839Z,35.29
2024-05-09T12:52:56.002Z,35.03
2024-05-09T12:57:59.574Z,35.41
2024-05-09T13:03:02.879Z,34.74
2024-05-09T13:08:07.173Z,34.96
2024-05-09T13:13:10.899Z,34.93
2024-05-09T13:18:14.178Z,34.81
2024-05-09T13:23:17.361Z,34.76
2024-05-09T13:28:21.315Z,35.30
2024-05-09T13:33:24.464Z,35.74
2024-05-09T13:38:27.569Z,36.01
2024-05-09T13:43:30.621Z,35.98
2024-05-09T13:48:34.565Z,34.86
2024-05-09T13:53:37.864Z,34.78
2024-05-09T13:58:42.086Z,35.07
2024-05-09T14:03:45.379Z,34.45
2024-05-09T14:08:48.571Z,34.12
2024-05-09T14:13:51.440Z,34.14
2024-05-09T14:18:54.409Z,34.10
2024-05-09T14:23:57.636Z,34.20
2024-05-09T14:29:00.728Z,34.47
2024-05-09T14:34:04.005Z,34.48
2024-05-09T14:39:07.349Z,34.55
2024-05-09T14:44:12.480Z,33.97
2024-05-09T14:49:15.560Z,34.51
2024-05-09T14:54:18.584Z,34.52
2024-05-09T14:59:21.536Z,33.93
2024-05-09T15:04:24.702Z,34.18
2024-05-09T15:09:35.550Z,34.84
2024-05-09T15:14:38.605Z,35.20
2024-05-09T15:19:41.617Z,35.24
2024-05-09T15:24:46.266Z,34.38
2024-05-09T15:29:49.251Z,34.56
2024-05-09T15:34:52.213Z,34.70
2024-05-09T15:39:55.156Z,34.59
2024-05-09T15:44:58.184Z,34.35
2024-05-09T15:50:01.191Z,34.18
2024-05-09T15:55:05.113Z,34.05
2024-05-09T16:00:15.236Z,34.34
2024-05-09T16:05:24.972Z,34.35
2024-05-09T16:10:32.705Z,34.56
2024-05-09T16:15:37.197Z,34.30
2024-05-09T16:20:42.333Z,34.13
2024-05-09T16:25:47.788Z,34.43
2024-05-09T16:30:51.586Z,34.87
2024-05-09T16:35:54.546Z,34.54
2024-05-09T16:40:57.507Z,34.90
2024-05-09T16:46:01.297Z,34.66
2024-05-09T16:51:04.268Z,35.43
2024-05-09T16:56:07.576Z,35.65
2024-05-09T17:01:13.376Z,35.16
2024-05-09T17:06:16.440Z,35.01
2024-05-09T17:11:19.450Z,36.72
2024-05-09T17:16:22.814Z,36.02
2024-05-09T17:21:26.145Z,36.61
2024-05-09T17:26:30.915Z,35.92
2024-05-09T17:31:34.053Z,35.93
2024-05-09T17:36:37.243Z,36.16
2024-05-09T17:41:40.425Z,36.35
2024-05-09T17:46:43.722Z,36.59
2024-05-09T17:51:54.317Z,36.71
2024-05-09T17:56:58.451Z,36.95
2024-05-09T18:02:01.769Z,37.21
2024-05-09T18:07:05.661Z,37.45
2024-05-09T18:12:08.841Z,38.32
2024-05-09T18:17:13.357Z,39.09
2024-05-09T18:22:16.455Z,40.16
2024-05-09T18:27:19.734Z,40.61
2024-05-09T18:32:22.848Z,40.90
2024-05-09T18:37:26.664Z,42.37
2024-05-09T18:42:29.657Z,43.10
2024-05-09T18:47:33.873Z,43.96
2024-05-09T18:52:36.899Z,44.63
2024-05-09T18:57:39.897Z,44.90
2024-05-09T19:02:43.039Z,45.40
2024-05-09T19:07:46.432Z,46.41
2024-05-09T19:12:49.584Z,47.86
2024-05-09T19:17:52.852Z,48.36
2024-05-09T19:22:56.258Z,48.85
2024-05-09T19:28:08.852Z,49.31
2024-05-09T19:33:21.047Z,50.08
2024-05-09T19:38:24.172Z,50.35
2024-05-09T19:43:27.649Z,50.57
2024-05-09T19:48:30.652Z,51.69
2024-05-09T19:53:33.759Z,52.39
2024-05-09T19:58:36.913Z,52.69
2024-05-09T20:03:40.063Z,52.99
2024-05-09T20:08:43.749Z,52.44
2024-05-09T20:13:46.696Z,52.52
2024-05-09T20:18:49.948Z,53.65
2024-05-09T20:23:54.263Z,54.95
2024-05-09T20:28:57.303Z,54.96
2024-05-09T20:34:00.317Z,55.43
2024-05-09T20:39:03.476Z,56.96
2024-05-09T20:44:37.785Z,57.49
2024-05-09T20:49:47.131Z,57.93
2024-05-09T20:54:50.218Z,58.63
2024-05-09T20:59:53.143Z,59.34
2024-05-09T21:04:56.242Z,59.45
2024-05-09T21:09:59.339Z,60.02
2024-05-09T21:15:02.352Z,60.73
2024-05-09T21:20:11.420Z,61.10
2024-05-09T21:25:17.631Z,60.99
2024-05-09T21:30:31.652Z,61.02
2024-05-09T21:35:44.541Z,61.38
2024-05-09T21:40:48.540Z,61.64
2024-05-09T21:45:51.697Z,62.67
2024-05-09T21:50:54.720Z,63.17
2024-05-09T21:55:57.693Z,63.53
2024-05-09T22:01:00.771Z,63.98
2024-05-09T22:06:03.895Z,64.15
2024-05-09T22:11:07.081Z,64.52
2024-05-09T22:16:10.130Z,64.68
2024-05-09T22:21:13.115Z,64.09
2024-05-09T22:26:16.365Z,64.46
2024-05-09T22:31:19.449Z,64.24
2024-05-09T22:36:22.540Z,64.73
2024-05-09T22:41:28.358Z,65.02
2024-05-09T22:46:31.637Z,66.00
2024-05-09T22:51:37.692Z,66.16
2024-05-09T22:56:40.720Z,66.35
2024-05-09T23:01:43.825Z,66.93
2024-05-09T23:06:47.197Z,67.17
2024-05-09T23:11:50.269Z,67.13
2024-05-09T23:16:53.307Z,67.66
2024-05-09T23:21:56.451Z,67.64
2024-05-09T23:26:59.458Z,67.82
2024-05-09T23:32:04.260Z,68.02
2024-05-09T23:37:07.282Z,68.37
2024-05-09T23:42:10.334Z,68.41
2024-05-09T23:47:13.508Z,68.88
2024-05-09T23:52:16.702Z,69.23
2024-05-09T23:57:19.956Z,69.12
